Time;durP1;ratioP1;P1;durP2;ratioP2;P2;SDS_P1;SDS_P2;PMS_P1;PMS_P2;Temp;Humidity;BMP_temperature;BMP_pressure;BME280_temperature;BME280_humidity;BME280_pressure;Samples;Min_cycle;Max_cycle;Signal;HPM_P1;HPM_P2
2023/09/20 00:00:27;;;;;;;5.43;2.35;;;16.60;99.90;;;;;;5087552;27;20162;-78
2023/09/20 00:02:53;;;;;;;5.25;2.15;;;16.50;99.90;;;;;;5087985;28;20035;-77
2023/09/20 00:05:21;;;;;;;;;;;16.50;99.90;;;;;;5106253;27;20065;-78
2023/09/20 00:07:50;;;;;;;5.82;2.33;;;16.60;99.90;;;;;;5116401;27;19922;-78
2023/09/20 00:10:19;;;;;;;9.50;2.45;;;16.70;99.90;;;;;;5100103;27;20052;-78
2023/09/20 00:12:45;;;;;;;4.78;2.00;;;16.60;99.90;;;;;;5097201;27;20065;-78
2023/09/20 00:15:11;;;;;;;4.20;1.58;;;16.60;99.90;;;;;;5084366;28;20059;-78
2023/09/20 00:17:37;;;;;;;5.30;2.55;;;16.70;99.90;;;;;;5110138;27;20110;-78
2023/09/20 00:20:11;;;;;;;6.38;2.42;;;16.70;99.90;;;;;;5113269;27;20396;-78
2023/09/20 00:22:44;;;;;;;4.00;1.70;;;16.70;99.90;;;;;;5085732;28;20130;-78
2023/09/20 00:25:12;;;;;;;3.53;1.67;;;16.50;99.90;;;;;;5092941;28;20043;-75
2023/09/20 00:27:39;;;;;;;3.42;1.70;;;16.60;99.90;;;;;;5103236;27;20060;-75
2023/09/20 00:30:10;;;;;;;5.43;2.05;;;16.60;99.90;;;;;;5098385;27;20149;-75
2023/09/20 00:32:39;;;;;;;3.95;1.80;;;16.70;99.90;;;;;;5064589;27;20034;-75
2023/09/20 00:35:08;;;;;;;4.78;2.03;;;16.60;99.90;;;;;;5106735;27;20035;-75
2023/09/20 00:37:33;;;;;;;4.25;1.63;;;16.60;99.90;;;;;;5089746;27;20441;-75
2023/09/20 00:39:59;;;;;;;3.88;1.83;;;16.60;99.90;;;;;;5092745;27;20039;-75
2023/09/20 00:42:27;;;;;;;4.22;2.30;;;16.60;99.90;;;;;;5110362;27;20412;-75
2023/09/20 00:44:53;;;;;;;3.80;1.90;;;16.50;99.90;;;;;;5081908;28;20040;-75
2023/09/20 00:47:20;;;;;;;4.15;1.85;;;16.60;99.90;;;;;;5100181;27;20035;-75
2023/09/20 00:49:46;;;;;;;5.82;2.13;;;16.60;99.90;;;;;;5106807;27;20104;-75
2023/09/20 00:52:13;;;;;;;4.70;2.00;;;16.60;99.90;;;;;;5091689;27;20043;-75
2023/09/20 00:54:41;;;;;;;4.63;1.90;;;16.70;99.90;;;;;;5105440;27;20043;-75
2023/09/20 00:57:09;;;;;;;4.93;2.10;;;16.70;99.90;;;;;;5096025;28;20043;-75
2023/09/20 00:59:38;;;;;;;3.78;1.80;;;16.70;99.90;;;;;;5130844;27;20038;-75
2023/09/20 01:02:05;;;;;;;5.35;1.75;;;16.60;99.90;;;;;;5098385;28;20051;-76
2023/09/20 01:04:34;;;;;;;3.97;2.20;;;16.60;99.90;;;;;;5118947;27;20043;-75
2023/09/20 01:07:00;;;;;;;3.80;2.10;;;16.60;99.90;;;;;;5102664;28;20112;-77
2023/09/20 01:09:26;;;;;;;;;;;16.60;99.90;;;;;;5073681;28;20044;-76
2023/09/20 01:11:53;;;;;;;5.55;1.73;;;16.60;99.90;;;;;;5113716;28;19926;-75
2023/09/20 01:14:20;;;;;;;5.65;2.00;;;16.60;99.90;;;;;;5085174;28;20134;-75
2023/09/20 01:16:46;;;;;;;3.65;1.75;;;16.60;99.90;;;;;;5120086;28;20077;-75
2023/09/20 01:19:11;;;;;;;5.05;2.17;;;16.60;99.90;;;;;;5093459;28;20080;-75
2023/09/20 01:21:41;;;;;;;5.13;2.53;;;16.60;99.90;;;;;;5095288;28;20048;-75
2023/09/20 01:24:08;;;;;;;3.55;1.80;;;16.60;99.90;;;;;;5103814;28;20092;-76
2023/09/20 01:26:38;;;;;;;4.13;1.73;;;16.60;99.90;;;;;;5092723;28;20050;-75
2023/09/20 01:29:04;;;;;;;5.40;1.95;;;16.60;99.90;;;;;;5103928;27;20047;-75
2023/09/20 01:31:30;;;;;;;4.32;2.00;;;16.60;99.90;;;;;;5115409;27;20044;-75
2023/09/20 01:33:56;;;;;;;4.18;1.70;;;16.60;99.90;;;;;;5085804;28;20055;-75
2023/09/20 01:36:22;;;;;;;4.65;2.00;;;16.60;99.90;;;;;;5097643;28;20100;-75
2023/09/20 01:38:47;;;;;;;5.22;2.20;;;16.60;99.90;;;;;;5100190;28;20122;-75
2023/09/20 01:41:14;;;;;;;;;;;16.60;99.90;;;;;;5108329;28;20036;-75
2023/09/20 01:43:41;;;;;;;4.22;1.75;;;16.60;99.90;;;;;;5100835;27;20464;-75
2023/09/20 01:46:09;;;;;;;3.55;2.25;;;16.60;99.90;;;;;;5106121;27;20443;-75
2023/09/20 01:48:36;;;;;;;5.93;1.98;;;16.60;99.90;;;;;;5104487;27;20036;-75
2023/09/20 01:51:03;;;;;;;3.92;1.55;;;16.60;99.90;;;;;;5103946;28;20044;-74
2023/09/20 01:53:29;;;;;;;3.75;1.77;;;16.70;99.90;;;;;;5107536;27;20042;-75
2023/09/20 01:55:57;;;;;;;4.20;1.70;;;16.70;99.90;;;;;;5087402;28;20036;-75
2023/09/20 01:58:23;;;;;;;3.08;1.50;;;16.70;99.90;;;;;;5082552;28;20402;-75
2023/09/20 02:00:50;;;;;;;4.50;1.80;;;16.70;99.90;;;;;;5097582;28;20035;-75
2023/09/20 02:03:19;;;;;;;4.07;1.73;;;16.70;99.90;;;;;;5106789;28;20047;-75
2023/09/20 02:05:47;;;;;;;7.85;2.13;;;16.70;99.90;;;;;;5111007;27;20130;-75
2023/09/20 02:08:13;;;;;;;3.28;1.90;;;16.70;99.90;;;;;;5105380;28;20170;-75
2023/09/20 02:10:39;;;;;;;3.40;1.30;;;16.70;99.90;;;;;;5121758;27;20586;-75
2023/09/20 02:13:06;;;;;;;;;;;16.70;99.90;;;;;;5125653;27;20024;-75
2023/09/20 02:15:36;;;;;;;4.22;1.67;;;16.70;99.90;;;;;;5121321;27;19927;-75
2023/09/20 02:18:05;;;;;;;3.55;1.67;;;16.80;99.90;;;;;;5105379;28;20035;-75
2023/09/20 02:20:36;;;;;;;5.95;2.10;;;16.80;99.90;;;;;;5107998;27;20071;-75
2023/09/20 02:23:04;;;;;;;4.43;1.60;;;16.80;99.90;;;;;;5103021;28;20042;-75
2023/09/20 02:25:30;;;;;;;2.83;1.50;;;16.90;99.90;;;;;;5102170;27;20043;-75
2023/09/20 02:27:59;;;;;;;;;;;16.90;99.90;;;;;;5122340;27;20072;-75
2023/09/20 02:30:32;;;;;;;3.90;1.60;;;16.90;99.90;;;;;;5106805;27;19923;-75
2023/09/20 02:32:59;;;;;;;4.22;1.50;;;16.90;99.90;;;;;;5102293;28;20043;-75
2023/09/20 02:35:29;;;;;;;2.53;1.40;;;16.80;99.90;;;;;;5116637;27;20047;-75
2023/09/20 02:37:56;;;;;;;3.92;1.60;;;16.90;99.90;;;;;;5106432;28;20490;-75
2023/09/20 02:40:26;;;;;;;2.72;1.45;;;16.90;99.90;;;;;;5120090;27;20394;-75
2023/09/20 02:42:58;;;;;;;3.63;1.50;;;16.90;99.90;;;;;;5123317;27;20078;-75
2023/09/20 02:45:27;;;;;;;2.95;1.38;;;16.90;99.90;;;;;;5116056;27;20180;-75
2023/09/20 02:47:54;;;;;;;4.55;2.00;;;16.90;99.90;;;;;;5117516;27;20138;-75
2023/09/20 02:50:23;;;;;;;4.43;2.08;;;16.90;99.90;;;;;;5116338;27;20076;-75
2023/09/20 02:52:50;;;;;;;4.18;1.63;;;17.00;99.90;;;;;;5123587;27;20154;-75
2023/09/20 02:55:17;;;;;;;3.80;1.60;;;17.00;99.90;;;;;;5114294;27;20050;-75
2023/09/20 02:57:44;;;;;;;3.97;1.50;;;17.00;99.90;;;;;;5117592;27;20112;-75
2023/09/20 03:00:15;;;;;;;4.38;1.60;;;17.00;99.90;;;;;;5095244;28;20054;-75
2023/09/20 03:03:00;;;;;;;3.67;1.58;;;17.00;99.90;;;;;;5107180;27;20044;-75
2023/09/20 03:05:34;;;;;;;3.67;1.50;;;17.00;99.90;;;;;;5116422;27;20047;-75
2023/09/20 03:08:13;;;;;;;3.60;1.58;;;17.00;99.90;;;;;;5116778;27;20055;-75
2023/09/20 03:10:41;;;;;;;3.58;1.63;;;17.00;99.90;;;;;;5109934;27;20039;-75
2023/09/20 03:13:10;;;;;;;4.35;1.60;;;17.00;99.90;;;;;;5105543;28;20050;-75
2023/09/20 03:15:43;;;;;;;5.38;1.70;;;17.00;99.90;;;;;;5098666;27;20043;-75
2023/09/20 03:18:11;;;;;;;3.20;1.48;;;17.00;99.90;;;;;;5117484;27;20081;-75
2023/09/20 03:20:38;;;;;;;4.47;2.03;;;17.00;99.90;;;;;;5095627;27;20046;-75
2023/09/20 03:23:05;;;;;;;4.53;1.50;;;17.00;99.90;;;;;;5107381;28;20520;-75
2023/09/20 03:25:37;;;;;;;5.95;2.20;;;17.00;99.90;;;;;;5095672;27;20107;-75
2023/09/20 03:28:04;;;;;;;2.67;1.50;;;17.10;99.90;;;;;;5088444;28;20066;-75
2023/09/20 03:30:31;;;;;;;3.08;1.48;;;17.10;99.90;;;;;;5078635;28;20156;-74
2023/09/20 03:32:58;;;;;;;2.33;1.35;;;17.10;99.90;;;;;;5103161;27;20031;-75
2023/09/20 03:35:24;;;;;;;3.67;1.40;;;17.00;99.90;;;;;;5113068;27;20077;-75
2023/09/20 03:37:49;;;;;;;;;;;17.10;99.90;;;;;;5104845;28;20495;-74
2023/09/20 03:40:17;;;;;;;3.53;1.52;;;17.10;99.90;;;;;;5099265;28;19991;-75
2023/09/20 03:42:48;;;;;;;3.17;1.45;;;17.10;99.90;;;;;;5080135;27;20801;-75
2023/09/20 03:45:15;;;;;;;3.38;1.80;;;17.00;99.90;;;;;;5078917;27;20492;-75
2023/09/20 03:47:41;;;;;;;4.15;1.25;;;17.00;99.90;;;;;;5093902;27;20480;-75
2023/09/20 03:50:09;;;;;;;3.65;1.63;;;17.00;99.90;;;;;;5094926;28;20039;-75
2023/09/20 03:52:38;;;;;;;4.05;2.15;;;17.00;99.90;;;;;;5072705;28;20075;-75
2023/09/20 03:55:05;;;;;;;2.03;1.25;;;17.00;99.90;;;;;;5081156;28;20044;-75
2023/09/20 03:57:32;;;;;;;4.65;1.60;;;17.00;99.90;;;;;;5093884;28;20150;-75
2023/09/20 03:59:57;;;;;;;3.53;1.85;;;17.00;99.90;;;;;;5095085;27;20515;-75
2023/09/20 04:02:23;;;;;;;;;;;17.00;99.90;;;;;;5105908;27;20035;-75
2023/09/20 04:04:51;;;;;;;4.05;1.80;;;17.00;99.90;;;;;;5124940;27;20191;-75
2023/09/20 04:07:23;;;;;;;3.70;2.00;;;17.00;99.90;;;;;;5105045;27;20047;-75
2023/09/20 04:09:49;;;;;;;3.55;1.65;;;17.10;99.90;;;;;;5109765;27;20139;-75
2023/09/20 04:12:15;;;;;;;;;;;17.10;99.90;;;;;;5104607;27;20501;-75
2023/09/20 04:14:44;;;;;;;6.30;2.35;;;17.10;99.90;;;;;;5105804;27;20370;-75
2023/09/20 04:17:10;;;;;;;4.10;1.83;;;17.10;99.90;;;;;;5113103;27;20043;-75
2023/09/20 04:19:39;;;;;;;;;;;17.00;99.90;;;;;;5117190;27;20043;-75
2023/09/20 04:22:06;;;;;;;2.95;1.60;;;17.00;99.90;;;;;;5108085;28;19925;-75
2023/09/20 04:24:35;;;;;;;3.97;1.67;;;17.00;99.90;;;;;;5086007;28;20437;-75
2023/09/20 04:27:03;;;;;;;5.32;2.00;;;17.00;99.90;;;;;;5118306;27;20070;-75
2023/09/20 04:29:29;;;;;;;4.88;1.88;;;17.00;99.90;;;;;;5092840;28;20040;-75
2023/09/20 04:31:55;;;;;;;7.85;2.97;;;16.90;99.90;;;;;;5107921;28;20459;-75
2023/09/20 04:34:21;;;;;;;;;;;16.90;99.90;;;;;;5107324;28;20548;-75
2023/09/20 04:36:47;;;;;;;4.95;2.13;;;16.90;99.90;;;;;;5093222;28;19955;-75
2023/09/20 04:39:14;;;;;;;3.47;1.63;;;16.80;99.90;;;;;;5104521;27;20369;-75
2023/09/20 04:41:40;;;;;;;4.40;1.90;;;16.80;99.90;;;;;;5108823;27;20101;-75
2023/09/20 04:44:05;;;;;;;4.15;1.60;;;16.70;99.90;;;;;;5108444;27;20043;-74
2023/09/20 04:46:35;;;;;;;;;;;16.70;99.90;;;;;;5096488;28;20150;-75
2023/09/20 04:49:01;;;;;;;4.60;1.95;;;16.60;99.90;;;;;;5115721;27;20016;-75
2023/09/20 04:51:26;;;;;;;;;;;16.50;99.90;;;;;;5118559;27;20035;-75
2023/09/20 04:53:52;;;;;;;4.18;1.48;;;16.50;99.90;;;;;;5083365;28;19919;-75
2023/09/20 04:56:18;;;;;;;3.63;2.00;;;16.50;99.90;;;;;;5112349;27;20454;-75
2023/09/20 04:58:44;;;;;;;3.83;1.88;;;16.40;99.90;;;;;;5112979;28;20070;-75
2023/09/20 05:01:10;;;;;;;;;;;16.40;99.90;;;;;;5080340;27;20080;-75
2023/09/20 05:03:35;;;;;;;5.93;1.90;;;16.30;99.90;;;;;;5097670;27;20397;-75
2023/09/20 05:06:01;;;;;;;3.33;1.70;;;16.20;99.90;;;;;;5120663;28;20059;-75
2023/09/20 05:08:27;;;;;;;3.88;1.60;;;16.20;99.90;;;;;;5085794;28;20047;-76
2023/09/20 05:10:52;;;;;;;4.07;1.67;;;16.20;99.90;;;;;;5108057;28;20036;-77
2023/09/20 05:13:18;;;;;;;3.45;1.60;;;16.10;99.90;;;;;;5104679;28;20123;-76
2023/09/20 05:15:44;;;;;;;3.60;1.70;;;16.10;99.90;;;;;;5104742;28;20471;-76
2023/09/20 05:18:11;;;;;;;3.33;1.65;;;16.10;99.90;;;;;;5112041;28;20062;-76
2023/09/20 05:20:37;;;;;;;2.95;1.70;;;16.00;99.90;;;;;;5106839;28;20508;-77
2023/09/20 05:23:04;;;;;;;2.63;1.40;;;16.00;99.90;;;;;;5109160;28;20074;-74
2023/09/20 05:25:30;;;;;;;2.97;1.77;;;16.00;99.90;;;;;;5106191;28;20063;-75
2023/09/20 05:27:56;;;;;;;;;;;16.00;99.90;;;;;;5108435;28;20036;-76
2023/09/20 05:30:22;;;;;;;4.20;1.70;;;16.00;99.90;;;;;;5108491;28;19920;-76
2023/09/20 05:32:51;;;;;;;3.72;1.60;;;16.10;99.90;;;;;;5110825;28;20096;-76
2023/09/20 05:35:17;;;;;;;3.30;1.48;;;16.10;99.90;;;;;;5096655;28;20047;-76
2023/09/20 05:37:44;;;;;;;3.05;1.55;;;16.10;99.90;;;;;;5100821;28;20087;-76
2023/09/20 05:40:17;;;;;;;2.75;1.40;;;16.10;99.90;;;;;;5090150;28;20143;-76
2023/09/20 05:42:47;;;;;;;2.80;1.55;;;16.10;99.90;;;;;;5087631;28;20058;-75
2023/09/20 05:45:13;;;;;;;2.83;1.65;;;16.10;99.90;;;;;;5108237;28;20490;-75
2023/09/20 05:47:40;;;;;;;3.13;1.17;;;16.10;99.90;;;;;;5111630;28;20036;-75
2023/09/20 05:50:09;;;;;;;2.85;1.60;;;16.20;99.90;;;;;;5117336;28;20031;-75
2023/09/20 05:52:37;;;;;;;3.83;1.45;;;16.20;99.90;;;;;;5114827;28;20040;-76
2023/09/20 05:55:03;;;;;;;3.03;1.60;;;16.20;99.90;;;;;;5107994;28;20902;-76
2023/09/20 05:57:29;;;;;;;;;;;16.20;99.90;;;;;;5115192;28;20039;-76
2023/09/20 05:59:56;;;;;;;2.88;1.50;;;16.20;99.90;;;;;;5109736;28;19922;-76
2023/09/20 06:02:22;;;;;;;2.67;1.20;;;16.20;99.90;;;;;;5106536;28;20611;-76
2023/09/20 06:04:48;;;;;;;4.10;1.58;;;16.20;99.90;;;;;;5099126;28;20047;-76
2023/09/20 06:07:14;;;;;;;2.65;1.45;;;16.20;99.90;;;;;;5090196;28;20048;-77
2023/09/20 06:09:40;;;;;;;2.92;1.33;;;16.30;99.90;;;;;;5077172;28;20039;-77
2023/09/20 06:12:06;;;;;;;3.35;1.50;;;16.20;99.90;;;;;;5095011;27;20054;-76
2023/09/20 06:14:31;;;;;;;2.22;1.40;;;16.30;99.90;;;;;;5064760;28;20068;-77
2023/09/20 06:16:58;;;;;;;2.15;1.10;;;16.30;99.90;;;;;;5093644;28;20125;-76
2023/09/20 06:19:25;;;;;;;3.58;1.50;;;16.30;99.90;;;;;;5091768;27;20039;-76
2023/09/20 06:21:51;;;;;;;3.45;1.50;;;16.40;99.90;;;;;;5115795;27;20040;-76
2023/09/20 06:24:19;;;;;;;2.83;1.60;;;16.40;99.90;;;;;;5095242;28;20392;-76
2023/09/20 06:26:45;;;;;;;3.28;1.40;;;16.40;99.90;;;;;;5098849;28;20062;-76
2023/09/20 06:29:10;;;;;;;2.45;1.33;;;16.40;99.90;;;;;;5107433;27;20466;-76
2023/09/20 06:31:37;;;;;;;2.55;1.60;;;16.40;99.90;;;;;;5103698;28;20075;-77
2023/09/20 06:34:04;;;;;;;1.80;1.20;;;16.40;99.90;;;;;;5108033;27;20419;-76
2023/09/20 06:36:30;;;;;;;2.50;1.30;;;16.50;99.90;;;;;;5080900;27;20050;-76
2023/09/20 06:38:55;;;;;;;;;;;16.50;99.90;;;;;;5115576;27;20092;-76
2023/09/20 06:41:23;;;;;;;3.20;1.10;;;16.40;99.90;;;;;;5104187;27;19919;-76
2023/09/20 06:43:49;;;;;;;1.92;1.20;;;16.40;99.90;;;;;;5106270;28;20035;-76
2023/09/20 06:46:14;;;;;;;4.80;2.00;;;16.40;99.90;;;;;;5106801;27;20058;-77
2023/09/20 06:48:40;;;;;;;3.60;1.50;;;16.40;99.90;;;;;;5091478;27;20040;-77
2023/09/20 06:51:06;;;;;;;3.38;1.60;;;16.40;99.90;;;;;;5105333;27;20068;-78
2023/09/20 06:53:32;;;;;;;3.45;1.60;;;16.40;99.90;;;;;;5071438;27;20040;-77
2023/09/20 06:55:59;;;;;;;;;;;16.40;99.90;;;;;;5091338;28;20042;-78
2023/09/20 06:58:25;;;;;;;;;;;16.40;99.90;;;;;;5107624;27;19976;-77
2023/09/20 07:00:52;;;;;;;2.85;1.50;;;16.40;99.90;;;;;;5114580;27;19923;-78
2023/09/20 07:03:18;;;;;;;5.18;1.50;;;16.40;99.90;;;;;;5103913;28;20074;-78
2023/09/20 07:05:44;;;;;;;2.70;1.40;;;16.40;99.90;;;;;;5107909;27;20090;-77
2023/09/20 07:08:10;;;;;;;3.50;1.58;;;16.40;99.90;;;;;;5112651;27;20111;-77
2023/09/20 07:10:36;;;;;;;;;;;16.40;99.90;;;;;;5109303;27;20484;-77
2023/09/20 07:13:05;;;;;;;2.90;1.35;;;16.50;99.90;;;;;;5101762;27;20013;-77
2023/09/20 07:15:34;;;;;;;3.45;1.58;;;16.50;99.90;;;;;;5095110;27;20119;-77
2023/09/20 07:18:01;;;;;;;2.78;1.38;;;16.50;99.90;;;;;;5075326;27;20035;-77
2023/09/20 07:20:31;;;;;;;2.13;1.17;;;16.60;99.90;;;;;;5106754;27;20611;-77
2023/09/20 07:22:58;;;;;;;1.90;1.45;;;16.60;99.90;;;;;;5111374;27;20123;-77
2023/09/20 07:25:27;;;;;;;2.35;1.40;;;16.60;99.90;;;;;;5106529;27;21746;-77
2023/09/20 07:27:55;;;;;;;3.33;1.50;;;16.70;99.90;;;;;;5115933;27;20046;-77
2023/09/20 07:30:22;;;;;;;1.95;1.20;;;16.70;99.90;;;;;;5106112;27;20043;-76
2023/09/20 07:32:50;;;;;;;2.22;1.25;;;16.80;99.90;;;;;;5109869;27;20402;-77
2023/09/20 07:35:26;;;;;;;2.78;1.38;;;17.10;99.90;;;;;;5112359;27;20115;-77
2023/09/20 07:37:56;;;;;;;3.13;1.40;;;17.30;99.90;;;;;;5107736;27;20100;-77
2023/09/20 07:40:29;;;;;;;2.70;1.35;;;17.50;99.90;;;;;;5086187;27;20044;-78
2023/09/20 07:43:02;;;;;;;2.88;1.25;;;17.60;99.90;;;;;;5110074;27;20031;-77
2023/09/20 07:45:38;;;;;;;1.63;1.10;;;17.60;99.90;;;;;;5101624;28;20465;-77
2023/09/20 07:48:12;;;;;;;3.15;1.52;;;17.60;99.90;;;;;;5085378;27;20039;-78
2023/09/20 07:50:50;;;;;;;2.78;1.45;;;17.60;99.90;;;;;;5097662;28;20050;-78
2023/09/20 07:53:20;;;;;;;2.15;1.17;;;17.50;99.90;;;;;;5114615;27;20122;-77
2023/09/20 07:56:11;;;;;;;2.83;1.20;;;17.50;99.90;;;;;;5093289;27;20126;-78
2023/09/20 07:58:40;;;;;;;2.53;1.42;;;17.50;99.90;;;;;;5108509;27;20047;-78
2023/09/20 08:01:21;;;;;;;3.47;1.58;;;17.70;99.90;;;;;;5114721;27;20039;-78
2023/09/20 08:03:51;;;;;;;3.47;1.52;;;18.00;99.90;;;;;;5096196;27;20784;-77
2023/09/20 08:06:21;;;;;;;2.72;1.55;;;18.20;99.90;;;;;;5106217;27;20052;-77
2023/09/20 08:08:50;;;;;;;5.35;1.92;;;18.40;99.90;;;;;;5101340;27;20099;-79
2023/09/20 08:11:16;;;;;;;2.83;1.50;;;18.30;6.00;;;;;;5082537;28;20070;-77
2023/09/20 08:13:42;;;;;;;4.00;2.00;;;18.30;58.90;;;;;;5110049;27;20063;-77
2023/09/20 08:16:10;;;;;;;;;;;18.20;12.00;;;;;;5105523;27;20167;-77
2023/09/20 08:21:29;;;;;;;4.07;1.60;;;18.30;91.30;;;;;;5108647;27;20181;-78
2023/09/20 09:00:19;;;;;;;3.20;1.70;;;18.10;65.40;;;;;;5097826;28;20035;-79
2023/09/20 09:02:48;;;;;;;2.95;1.50;;;18.00;32.70;;;;;;5068943;28;20043;-78
2023/09/20 09:05:15;;;;;;;3.47;1.63;;;18.00;87.90;;;;;;5103658;28;20051;-78
2023/09/20 09:07:41;;;;;;;2.40;1.42;;;18.00;98.80;;;;;;5076783;28;20084;-78
2023/09/20 09:10:07;;;;;;;;;;;18.00;99.90;;;;;;5087394;28;20067;-79
2023/09/20 09:12:33;;;;;;;2.85;1.80;;;18.00;99.90;;;;;;5085600;28;20626;-78
2023/09/20 09:14:59;;;;;;;2.17;1.58;;;17.90;78.90;;;;;;5098289;28;20474;-79
2023/09/20 09:17:26;;;;;;;3.92;2.17;;;18.00;92.60;;;;;;5104371;28;20039;-78
2023/09/20 09:19:52;;;;;;;2.38;1.60;;;17.90;99.20;;;;;;5104074;28;20051;-78
2023/09/20 09:22:19;;;;;;;;;;;17.90;99.90;;;;;;5091704;28;20042;-78
2023/09/20 09:24:48;;;;;;;3.20;1.63;;;18.00;99.90;;;;;;5082126;28;19945;-78
2023/09/20 09:27:15;;;;;;;2.35;1.60;;;17.90;99.90;;;;;;5104912;28;20047;-78
2023/09/20 09:29:46;;;;;;;2.60;1.40;;;18.00;99.90;;;;;;5085928;28;20033;-78
2023/09/20 09:32:13;;;;;;;3.05;1.60;;;17.90;99.90;;;;;;5107350;28;20040;-78
2023/09/20 09:34:41;;;;;;;2.45;1.67;;;17.90;99.90;;;;;;5099359;28;20406;-78
2023/09/20 09:37:07;;;;;;;3.92;1.67;;;18.00;99.90;;;;;;5087431;28;20039;-78
2023/09/20 09:39:33;;;;;;;2.70;1.38;;;18.00;99.90;;;;;;5106570;28;20044;-78
2023/09/20 09:42:00;;;;;;;;;;;18.00;99.90;;;;;;5082527;28;20533;-78
2023/09/20 09:44:26;;;;;;;2.58;1.58;;;18.10;99.90;;;;;;5091969;28;19924;-79
2023/09/20 09:46:52;;;;;;;;;;;18.10;99.90;;;;;;5097330;28;20113;-79
2023/09/20 09:49:19;;;;;;;3.03;1.55;;;18.10;99.90;;;;;;5075573;28;20012;-78
2023/09/20 09:51:54;;;;;;;2.40;1.70;;;18.20;99.90;;;;;;5107625;28;20032;-78
2023/09/20 09:54:21;;;;;;;3.75;1.50;;;18.20;99.90;;;;;;5105549;28;20088;-78
2023/09/20 09:56:48;;;;;;;2.28;1.35;;;18.20;99.90;;;;;;5104915;28;20051;-78
2023/09/20 09:59:14;;;;;;;2.47;1.70;;;18.20;99.90;;;;;;5089889;28;20050;-78
2023/09/20 10:01:41;;;;;;;2.67;1.80;;;18.20;94.60;;;;;;5096774;28;20397;-78
2023/09/20 10:04:10;;;;;;;2.75;1.60;;;18.20;92.90;;;;;;5105229;28;20059;-79
2023/09/20 10:06:44;;;;;;;3.65;1.95;;;18.20;78.30;;;;;;5091094;28;20091;-77
2023/09/20 10:09:12;;;;;;;3.05;1.83;;;18.30;37.60;;;;;;5103932;28;20114;-77
2023/09/20 10:11:42;;;;;;;3.30;1.77;;;18.20;8.20;;;;;;5111545;28;20108;-77
2023/09/20 10:14:10;;;;;;;2.78;1.75;;;18.30;39.90;;;;;;5091615;28;20039;-77
2023/09/20 10:16:39;;;;;;;5.30;2.35;;;18.30;53.90;;;;;;5089682;28;20101;-77
2023/09/20 10:19:14;;;;;;;3.35;1.90;;;18.30;1.00;;;;;;5107685;28;20067;-77
2023/09/20 10:22:01;;;;;;;3.03;1.67;;;18.30;1.00;;;;;;5096774;28;20067;-78
2023/09/20 10:24:28;;;;;;;3.28;1.60;;;18.40;4.30;;;;;;5091639;28;20044;-77
2023/09/20 10:26:57;;;;;;;2.50;1.55;;;18.50;45.80;;;;;;5110597;28;20105;-77
2023/09/20 10:29:27;;;;;;;2.67;1.60;;;18.60;1.00;;;;;;5097802;28;20086;-77
2023/09/20 10:32:06;;;;;;;3.05;1.80;;;18.60;1.00;;;;;;5095621;28;20074;-77
2023/09/20 10:34:36;;;;;;;2.92;1.92;;;18.60;99.90;;;;;;5108769;28;20040;-77
2023/09/20 10:37:07;;;;;;;3.92;1.98;;;18.70;1.00;;;;;;5081766;28;20047;-78
2023/09/20 10:39:33;;;;;;;2.53;1.60;;;18.70;99.90;;;;;;5108902;28;20059;-77
2023/09/20 10:42:06;;;;;;;;;;;18.70;1.00;;;;;;5084482;28;20031;-77
2023/09/20 10:44:35;;;;;;;1.85;1.35;;;18.80;1.00;;;;;;5105090;28;19920;-78
2023/09/20 10:47:13;;;;;;;2.15;1.58;;;18.80;99.90;;;;;;5091312;28;20394;-78
2023/09/20 10:49:50;;;;;;;1.52;1.27;;;18.70;99.90;;;;;;5101991;28;20047;-78
2023/09/20 10:52:31;;;;;;;3.47;1.60;;;18.70;1.00;;;;;;5099744;28;20040;-78
2023/09/20 10:55:17;;;;;;;2.72;1.63;;;18.70;1.00;;;;;;5105705;28;20380;-78
2023/09/20 10:57:43;;;;;;;1.60;1.20;;;18.70;1.00;;;;;;5097887;28;20439;-78
2023/09/20 11:00:09;;;;;;;;;;;18.70;1.00;;;;;;5107751;28;20043;-78
2023/09/20 11:02:37;;;;;;;2.53;1.48;;;18.70;1.00;;;;;;5103701;28;19927;-79
2023/09/20 11:05:06;;;;;;;2.92;1.58;;;18.70;1.00;;;;;;5077344;28;20556;-78
2023/09/20 11:07:32;;;;;;;2.28;1.35;;;18.70;1.00;;;;;;5093194;28;20051;-77
2023/09/20 11:09:58;;;;;;;;;;;18.70;1.00;;;;;;5108781;28;20055;-78
2023/09/20 11:12:24;;;;;;;1.85;1.25;;;18.70;1.00;;;;;;5102970;28;19945;-78
2023/09/20 11:14:51;;;;;;;2.92;1.30;;;18.60;1.00;;;;;;5080249;28;20052;-79
2023/09/20 11:17:18;;;;;;;2.95;1.33;;;18.60;1.00;;;;;;5093655;28;20055;-78
2023/09/20 11:19:45;;;;;;;1.88;1.00;;;18.70;1.00;;;;;;5105929;28;20401;-79
2023/09/20 11:22:14;;;;;;;1.55;1.02;;;18.60;1.00;;;;;;5107432;28;20048;-79
2023/09/20 11:24:41;;;;;;;2.03;1.20;;;18.70;1.00;;;;;;5082583;28;20478;-78
2023/09/20 11:27:08;;;;;;;2.38;1.10;;;18.80;1.00;;;;;;5097641;28;20075;-79
2023/09/20 11:29:40;;;;;;;1.92;1.00;;;18.80;1.00;;;;;;5077010;28;20454;-76
2023/09/20 11:32:11;;;;;;;2.72;1.27;;;18.80;1.00;;;;;;5091565;28;20075;-77
2023/09/20 11:34:48;;;;;;;1.85;1.10;;;18.80;99.90;;;;;;5105468;28;20058;-76
2023/09/20 11:37:22;;;;;;;1.88;1.10;;;18.90;1.00;;;;;;5106120;28;20043;-76
2023/09/20 11:39:49;;;;;;;2.08;1.10;;;19.00;1.00;;;;;;5094070;28;20561;-76
2023/09/20 11:42:31;;;;;;;1.90;1.00;;;18.90;99.90;;;;;;5101928;28;20569;-77
2023/09/20 11:44:57;;;;;;;2.38;1.13;;;18.90;99.90;;;;;;5106876;28;20505;-77
2023/09/20 11:47:24;;;;;;;1.60;1.00;;;19.00;1.00;;;;;;5107127;27;20039;-77
2023/09/20 11:49:50;;;;;;;1.80;1.00;;;18.90;1.00;;;;;;5122568;27;20050;-76
2023/09/20 11:52:20;;;;;;;2.15;1.20;;;19.00;1.00;;;;;;5113963;27;20039;-76
2023/09/20 11:54:47;;;;;;;1.63;1.08;;;19.00;1.00;;;;;;5104651;27;20059;-76
2023/09/20 11:57:19;;;;;;;3.00;0.98;;;19.00;1.00;;;;;;5112822;27;20211;-76
2023/09/20 11:59:47;;;;;;;1.27;0.95;;;19.00;1.00;;;;;;5089097;27;20048;-76
2023/09/20 12:02:12;;;;;;;1.33;0.90;;;19.00;1.00;;;;;;5114830;27;20480;-76
2023/09/20 12:04:38;;;;;;;;;;;19.00;1.00;;;;;;5095863;28;20048;-77
2023/09/20 12:07:07;;;;;;;2.83;1.30;;;19.00;1.00;;;;;;5106197;28;20369;-77
2023/09/20 12:09:34;;;;;;;1.90;1.40;;;19.00;99.90;;;;;;5106747;28;20036;-76
2023/09/20 12:11:59;;;;;;;2.35;1.42;;;18.90;99.90;;;;;;5106095;28;20058;-76
2023/09/20 12:14:25;;;;;;;;;;;19.00;1.00;;;;;;5106293;28;20044;-77
2023/09/20 12:16:51;;;;;;;2.55;1.60;;;19.00;99.90;;;;;;5103968;28;20027;-77
2023/09/20 12:19:17;;;;;;;;;;;19.00;99.90;;;;;;5109516;28;20493;-76
2023/09/20 12:21:47;;;;;;;3.15;1.70;;;19.00;99.90;;;;;;5108382;28;20006;-77
2023/09/20 12:24:13;;;;;;;2.58;1.63;;;19.10;99.90;;;;;;5085216;28;20065;-76
2023/09/20 12:26:39;;;;;;;2.50;1.45;;;19.10;99.90;;;;;;5069454;28;20511;-77
2023/09/20 12:29:06;;;;;;;2.30;1.45;;;19.20;99.90;;;;;;5088027;28;20051;-77
2023/09/20 12:31:32;;;;;;;2.05;1.50;;;19.20;99.90;;;;;;5088810;28;20121;-77
2023/09/20 12:34:00;;;;;;;1.95;1.50;;;19.20;99.90;;;;;;5107258;28;20112;-78
2023/09/20 12:36:28;;;;;;;1.52;1.30;;;19.20;99.90;;;;;;5108786;27;20036;-77
2023/09/20 12:38:54;;;;;;;2.78;1.63;;;19.20;99.90;;;;;;5120158;27;20393;-77
2023/09/20 12:41:20;;;;;;;;;;;19.20;99.90;;;;;;5105593;27;20031;-78
2023/09/20 12:43:47;;;;;;;1.55;1.30;;;19.20;99.90;;;;;;5126114;27;19969;-77
2023/09/20 12:46:12;;;;;;;1.63;1.25;;;19.20;99.90;;;;;;5119011;27;20089;-77
2023/09/20 12:48:38;;;;;;;;;;;19.30;99.90;;;;;;5124152;27;20698;-77
2023/09/20 12:51:05;;;;;;;3.60;1.45;;;19.30;99.90;;;;;;5123202;27;19945;-77
2023/09/20 12:53:34;;;;;;;1.67;1.10;;;19.40;99.90;;;;;;5109767;27;20511;-77
2023/09/20 12:56:00;;;;;;;1.60;1.20;;;19.40;99.90;;;;;;5110648;27;20077;-77
2023/09/20 12:58:26;;;;;;;1.98;1.30;;;19.40;99.90;;;;;;5122887;27;20043;-78
2023/09/20 13:00:52;;;;;;;;;;;19.50;99.90;;;;;;5117575;27;20057;-77
2023/09/20 13:03:17;;;;;;;2.75;1.40;;;19.50;99.90;;;;;;5114356;28;19919;-77
2023/09/20 13:05:45;;;;;;;;;;;19.50;95.20;;;;;;5103598;28;20136;-78
2023/09/20 13:08:13;;;;;;;1.88;1.30;;;19.60;96.00;;;;;;5080902;28;20265;-78
2023/09/20 13:10:38;;;;;;;1.63;1.23;;;19.60;76.00;;;;;;5072609;28;20059;-78
2023/09/20 13:13:08;;;;;;;;;;;19.60;99.90;;;;;;5096747;28;20040;-79
2023/09/20 13:15:34;;;;;;;1.50;1.20;;;19.70;99.90;;;;;;5106505;28;19964;-78
2023/09/20 13:18:01;;;;;;;2.35;1.48;;;19.70;1.00;;;;;;5101547;28;20047;-79
2023/09/20 13:20:27;;;;;;;2.65;1.60;;;19.80;1.00;;;;;;5103610;28;20047;-79
2023/09/20 13:22:54;;;;;;;1.30;0.95;;;19.80;99.90;;;;;;5103349;28;20167;-79
2023/09/20 13:25:21;;;;;;;1.85;1.17;;;19.80;99.90;;;;;;5117526;27;20126;-79
2023/09/20 13:27:50;;;;;;;1.90;1.30;;;19.80;99.90;;;;;;5095802;27;20048;-79
2023/09/20 13:30:17;;;;;;;1.85;1.35;;;19.90;99.90;;;;;;5109670;27;20048;-79
2023/09/20 13:32:46;;;;;;;2.00;1.30;;;20.10;99.90;;;;;;5110868;27;20047;-79
2023/09/20 13:35:12;;;;;;;2.45;1.60;;;20.30;99.90;;;;;;5116887;27;20086;-80
2023/09/20 13:37:40;;;;;;;3.60;1.70;;;20.70;99.90;;;;;;5098072;28;20052;-80
2023/09/20 13:40:07;;;;;;;2.40;1.50;;;20.80;1.00;;;;;;5099052;27;20075;-80